Time;durP1;ratioP1;P1;durP2;ratioP2;P2;SDS_P1;SDS_P2;PMS_P1;PMS_P2;Temp;Humidity;BMP_temperature;BMP_pressure;BME280_temperature;BME280_humidity;BME280_pressure;Samples;Min_cycle;Max_cycle;Signal;HPM_P1;HPM_P2
2021/05/14 00:02:05;;;;;;;1.80;0.95;;;9.40;99.90;;;;;;4961346;28;20083;-75
2021/05/14 00:04:31;;;;;;;1.50;1.10;;;9.40;99.90;;;;;;4950065;28;20083;-75
2021/05/14 00:06:56;;;;;;;2.20;1.20;;;9.50;99.90;;;;;;4942311;28;20083;-75
2021/05/14 00:09:22;;;;;;;1.00;0.70;;;9.60;99.90;;;;;;4960411;28;20072;-75
2021/05/14 00:11:48;;;;;;;1.52;0.90;;;9.50;99.90;;;;;;4951431;28;20100;-75
2021/05/14 00:14:15;;;;;;;2.33;1.00;;;9.60;99.90;;;;;;4950684;28;20084;-76
2021/05/14 00:16:41;;;;;;;1.23;0.80;;;9.60;99.90;;;;;;4952195;28;20080;-75
2021/05/14 00:19:07;;;;;;;1.40;0.70;;;9.60;99.90;;;;;;4950826;28;20130;-75
2021/05/14 00:21:33;;;;;;;1.15;0.75;;;9.60;99.90;;;;;;4961825;28;20107;-75
2021/05/14 00:23:59;;;;;;;1.33;0.70;;;9.60;99.90;;;;;;4951047;28;20100;-75
2021/05/14 00:26:24;;;;;;;1.83;1.38;;;9.70;99.90;;;;;;4948884;28;20135;-75
2021/05/14 00:28:50;;;;;;;1.70;0.85;;;9.70;99.90;;;;;;4950491;28;20076;-75
2021/05/14 00:31:17;;;;;;;1.77;0.93;;;9.70;99.90;;;;;;4959581;28;20143;-75
2021/05/14 00:33:42;;;;;;;2.63;1.20;;;9.70;99.90;;;;;;4950128;28;20083;-75
2021/05/14 00:36:08;;;;;;;1.30;0.90;;;9.60;99.90;;;;;;4939386;28;20145;-76
2021/05/14 00:38:35;;;;;;;0.98;0.68;;;9.70;99.90;;;;;;4954767;28;20088;-76
2021/05/14 00:41:00;;;;;;;2.65;0.70;;;9.60;99.90;;;;;;4946813;28;20102;-75
2021/05/14 00:43:26;;;;;;;1.02;0.80;;;9.50;99.90;;;;;;4951026;28;20641;-75
2021/05/14 00:45:51;;;;;;;3.17;0.80;;;9.40;99.90;;;;;;4954509;28;20088;-75
2021/05/14 00:48:17;;;;;;;4.05;0.70;;;9.50;99.90;;;;;;4948393;28;20087;-75
2021/05/14 00:50:43;;;;;;;2.10;0.63;;;9.60;99.90;;;;;;4949314;28;20096;-75
2021/05/14 00:53:08;;;;;;;1.38;0.68;;;9.50;99.90;;;;;;4932106;28;20111;-75
2021/05/14 00:55:34;;;;;;;1.20;0.52;;;9.50;99.90;;;;;;4949706;28;20837;-76
2021/05/14 00:58:00;;;;;;;1.67;0.52;;;9.40;99.90;;;;;;4953744;28;20657;-75
2021/05/14 01:00:25;;;;;;;0.88;0.70;;;9.30;99.90;;;;;;4953133;28;20111;-75
2021/05/14 01:02:52;;;;;;;1.52;0.60;;;9.40;99.90;;;;;;4955001;28;20107;-76
2021/05/14 01:05:19;;;;;;;0.90;0.60;;;9.30;99.90;;;;;;4956186;28;20076;-75
2021/05/14 01:07:45;;;;;;;0.98;0.88;;;9.40;99.90;;;;;;4958154;28;20095;-75
2021/05/14 01:10:11;;;;;;;4.10;0.60;;;9.30;99.90;;;;;;4960072;28;20091;-75
2021/05/14 01:12:36;;;;;;;1.70;0.70;;;9.20;99.90;;;;;;4962011;28;20115;-75
2021/05/14 01:15:03;;;;;;;1.08;0.70;;;9.30;99.90;;;;;;4961593;28;20142;-75
2021/05/14 01:17:30;;;;;;;1.30;0.60;;;9.30;99.90;;;;;;4955659;28;20169;-75
2021/05/14 01:19:56;;;;;;;1.95;0.93;;;9.30;99.90;;;;;;4953195;28;20080;-75
2021/05/14 01:22:25;;;;;;;1.45;0.70;;;9.20;99.90;;;;;;4951565;28;20095;-75
2021/05/14 01:24:50;;;;;;;1.20;1.00;;;9.20;99.90;;;;;;4954131;28;20075;-75
2021/05/14 01:27:16;;;;;;;1.45;0.50;;;9.20;99.90;;;;;;4946368;28;20067;-75
2021/05/14 01:29:43;;;;;;;0.80;0.63;;;9.10;99.90;;;;;;4955532;28;20109;-75
2021/05/14 01:32:09;;;;;;;0.95;0.60;;;9.20;99.90;;;;;;4968432;28;20093;-75
2021/05/14 01:34:34;;;;;;;1.42;0.65;;;9.10;99.90;;;;;;4970391;28;20075;-75
2021/05/14 01:37:00;;;;;;;1.00;0.85;;;9.10;99.90;;;;;;4963255;28;20102;-75
2021/05/14 01:39:26;;;;;;;1.95;0.70;;;9.00;99.90;;;;;;4954830;28;20096;-75
2021/05/14 01:41:53;;;;;;;0.88;0.75;;;9.00;99.90;;;;;;4955919;28;20091;-75
2021/05/14 01:44:19;;;;;;;1.25;1.08;;;9.00;99.90;;;;;;4937254;28;20642;-75
2021/05/14 01:46:45;;;;;;;2.13;0.90;;;9.00;99.90;;;;;;4946690;28;20138;-75
2021/05/14 01:49:10;;;;;;;2.33;0.93;;;8.90;99.90;;;;;;4956879;28;20159;-75
2021/05/14 01:51:36;;;;;;;0.77;0.70;;;9.00;99.90;;;;;;4954200;28;20100;-75
2021/05/14 01:54:02;;;;;;;1.02;0.60;;;8.90;99.90;;;;;;4953110;28;20561;-75
2021/05/14 01:56:27;;;;;;;0.95;0.65;;;8.90;99.90;;;;;;4936292;28;20099;-75
2021/05/14 01:58:53;;;;;;;1.13;0.52;;;9.00;99.90;;;;;;4972472;28;20082;-75
2021/05/14 02:01:19;;;;;;;3.05;0.80;;;8.90;99.90;;;;;;4955494;28;20191;-75
2021/05/14 02:03:45;;;;;;;0.50;0.40;;;8.90;99.90;;;;;;4956096;28;20091;-75
2021/05/14 02:06:11;;;;;;;0.95;0.70;;;8.90;99.90;;;;;;4955072;28;20084;-75
2021/05/14 02:08:37;;;;;;;1.75;0.70;;;8.90;99.90;;;;;;4938568;28;20076;-76
2021/05/14 02:11:03;;;;;;;1.45;0.77;;;9.00;99.90;;;;;;4958657;28;20134;-75
2021/05/14 02:13:30;;;;;;;0.73;0.35;;;9.00;99.90;;;;;;4963643;28;20080;-76
2021/05/14 02:15:55;;;;;;;3.17;0.80;;;9.00;99.90;;;;;;4938348;28;20084;-76
2021/05/14 02:18:21;;;;;;;1.33;0.63;;;9.00;99.90;;;;;;4943793;28;20114;-75
2021/05/14 02:20:47;;;;;;;1.67;0.70;;;8.90;99.90;;;;;;4962576;28;20112;-76
2021/05/14 02:23:13;;;;;;;4.47;0.85;;;9.00;99.90;;;;;;4965778;28;20083;-76
2021/05/14 02:25:39;;;;;;;1.70;0.55;;;9.10;99.90;;;;;;4951463;28;20536;-75
2021/05/14 02:28:07;;;;;;;0.80;0.70;;;9.00;99.90;;;;;;4963801;28;20110;-76
2021/05/14 02:30:32;;;;;;;0.73;0.55;;;9.10;99.90;;;;;;4952242;28;20650;-75
2021/05/14 02:32:58;;;;;;;1.67;0.55;;;9.00;99.90;;;;;;4952036;28;20126;-76
2021/05/14 02:35:24;;;;;;;0.93;0.70;;;9.00;99.90;;;;;;4954044;28;20086;-76
2021/05/14 02:37:50;;;;;;;3.83;0.65;;;9.00;99.90;;;;;;4944205;28;20094;-76
2021/05/14 02:40:15;;;;;;;1.42;0.70;;;9.00;99.90;;;;;;4956490;28;20114;-76
2021/05/14 02:42:41;;;;;;;0.95;0.60;;;9.10;99.90;;;;;;4955965;28;20099;-75
2021/05/14 02:45:08;;;;;;;2.08;0.75;;;9.00;99.90;;;;;;4966288;28;20068;-75
2021/05/14 02:47:33;;;;;;;1.00;0.60;;;9.10;99.90;;;;;;4937426;28;20075;-76
2021/05/14 02:49:59;;;;;;;1.60;0.68;;;9.10;99.90;;;;;;4956607;28;20091;-76
2021/05/14 02:52:24;;;;;;;0.65;0.50;;;9.10;99.90;;;;;;4958711;28;20191;-76
2021/05/14 02:54:50;;;;;;;0.95;0.70;;;9.10;99.90;;;;;;4952357;28;20091;-76
2021/05/14 02:57:16;;;;;;;1.80;0.70;;;9.10;99.90;;;;;;4967731;28;20154;-76
2021/05/14 02:59:42;;;;;;;4.63;0.90;;;9.00;99.90;;;;;;4969084;28;20075;-76
2021/05/14 03:02:08;;;;;;;1.00;0.60;;;8.90;99.90;;;;;;4960749;28;20552;-75
2021/05/14 03:04:34;;;;;;;0.80;0.60;;;9.00;99.90;;;;;;4964872;28;20475;-76
2021/05/14 03:07:01;;;;;;;1.15;1.00;;;8.90;99.90;;;;;;4960383;28;20635;-75
2021/05/14 03:09:27;;;;;;;0.85;0.40;;;8.90;99.90;;;;;;4949653;28;20072;-77
2021/05/14 03:11:52;;;;;;;1.15;0.65;;;8.80;99.90;;;;;;4965027;28;20190;-76
2021/05/14 03:14:18;;;;;;;2.50;0.98;;;8.80;99.90;;;;;;4955110;28;20099;-76
2021/05/14 03:16:43;;;;;;;1.90;0.60;;;8.90;99.90;;;;;;4951543;28;20110;-75
2021/05/14 03:19:09;;;;;;;2.13;0.70;;;8.80;99.90;;;;;;4966196;28;20091;-75
2021/05/14 03:21:34;;;;;;;1.73;0.60;;;8.70;99.90;;;;;;4969138;28;20134;-76
2021/05/14 03:24:00;;;;;;;1.85;0.57;;;8.70;99.90;;;;;;4965452;28;20099;-77
2021/05/14 03:26:26;;;;;;;1.95;0.70;;;8.80;99.90;;;;;;4950795;28;20627;-75
2021/05/14 03:28:52;;;;;;;1.50;0.60;;;8.70;99.90;;;;;;4934023;29;20131;-76
2021/05/14 03:31:18;;;;;;;1.40;0.68;;;8.60;99.90;;;;;;4961672;28;20087;-76
2021/05/14 03:33:43;;;;;;;1.52;0.52;;;8.60;99.90;;;;;;4961015;28;20118;-76
2021/05/14 03:36:09;;;;;;;1.02;0.93;;;8.50;99.90;;;;;;4949136;28;20186;-75
2021/05/14 03:38:35;;;;;;;1.63;1.08;;;8.60;99.90;;;;;;4969426;28;20862;-76
2021/05/14 03:41:03;;;;;;;3.40;0.63;;;8.60;99.90;;;;;;4955653;28;20096;-75
2021/05/14 03:43:31;;;;;;;5.40;0.80;;;8.60;99.90;;;;;;4951348;28;20091;-76
2021/05/14 03:45:57;;;;;;;1.13;0.88;;;8.50;99.90;;;;;;4956453;28;20544;-76
2021/05/14 03:48:22;;;;;;;1.70;0.50;;;8.50;99.90;;;;;;4952899;28;20076;-75
2021/05/14 03:50:51;;;;;;;0.85;0.73;;;8.40;99.90;;;;;;4957159;28;20099;-76
2021/05/14 03:53:21;;;;;;;1.50;0.77;;;8.30;99.90;;;;;;4964763;28;20546;-76
2021/05/14 03:55:47;;;;;;;2.22;0.60;;;8.30;99.90;;;;;;4940980;28;20087;-75
2021/05/14 03:58:13;;;;;;;0.80;0.45;;;8.20;99.90;;;;;;4950929;29;20076;-76
2021/05/14 04:00:38;;;;;;;1.40;0.70;;;8.10;99.90;;;;;;4956526;28;20117;-77
2021/05/14 04:03:04;;;;;;;3.42;1.17;;;8.20;99.90;;;;;;4956964;28;20616;-76
2021/05/14 04:05:30;;;;;;;2.55;1.02;;;8.10;99.90;;;;;;4969536;28;20154;-76
2021/05/14 04:07:55;;;;;;;11.15;0.93;;;8.10;99.90;;;;;;4953481;28;20140;-76
2021/05/14 04:15:45;;;;;;;0.90;0.40;;;8.00;99.90;;;;;;4961516;28;20118;-75
2021/05/14 04:18:10;;;;;;;1.13;0.60;;;7.90;99.90;;;;;;4949330;28;20110;-76
2021/05/14 04:20:36;;;;;;;1.20;0.70;;;7.90;99.90;;;;;;4958671;28;20096;-76
2021/05/14 04:23:02;;;;;;;2.35;0.63;;;7.90;99.90;;;;;;4950913;28;20100;-76
2021/05/14 04:25:27;;;;;;;1.52;0.70;;;7.80;99.90;;;;;;4946320;28;20541;-74
2021/05/14 04:27:53;;;;;;;2.45;0.75;;;7.90;99.90;;;;;;4946001;28;20134;-75
2021/05/14 04:30:19;;;;;;;0.90;0.60;;;7.90;99.90;;;;;;4951925;28;20098;-76
2021/05/14 04:32:44;;;;;;;1.85;0.57;;;7.70;99.90;;;;;;4964296;28;20118;-76
2021/05/14 04:35:10;;;;;;;1.85;1.10;;;7.80;99.90;;;;;;4961729;28;20087;-76
2021/05/14 04:37:36;;;;;;;0.77;0.57;;;7.80;99.90;;;;;;4971341;28;20087;-76
2021/05/14 04:40:02;;;;;;;3.42;0.80;;;7.90;99.90;;;;;;4946752;28;20744;-75
2021/05/14 04:42:28;;;;;;;2.55;0.88;;;7.80;99.90;;;;;;4954955;28;20145;-76
2021/05/14 04:44:53;;;;;;;1.48;0.47;;;7.80;99.90;;;;;;4955442;28;20556;-76
2021/05/14 04:47:19;;;;;;;0.80;0.43;;;7.80;99.90;;;;;;4972718;28;20463;-77
2021/05/14 04:49:44;;;;;;;2.20;0.40;;;7.90;99.90;;;;;;4970540;28;20107;-75
2021/05/14 04:52:25;;;;;;;2.70;0.68;;;7.80;99.90;;;;;;4961055;28;20087;-76
2021/05/14 04:54:50;;;;;;;1.10;0.68;;;8.00;99.90;;;;;;4976959;28;20105;-76
2021/05/14 04:57:16;;;;;;;1.23;0.60;;;8.00;99.90;;;;;;4965887;28;20484;-76
2021/05/14 04:59:42;;;;;;;1.45;0.60;;;8.10;99.90;;;;;;4963873;28;20158;-75
2021/05/14 05:02:08;;;;;;;2.17;0.60;;;8.10;99.90;;;;;;4961438;28;20275;-74
2021/05/14 05:04:38;;;;;;;1.73;0.60;;;8.20;99.90;;;;;;4951903;28;20083;-75
2021/05/14 05:07:07;;;;;;;3.30;1.00;;;8.20;99.90;;;;;;4965830;28;20103;-76
2021/05/14 05:09:32;;;;;;;1.80;0.90;;;8.30;99.90;;;;;;4958223;28;20083;-75
2021/05/14 05:11:58;;;;;;;8.18;2.28;;;8.30;99.90;;;;;;4973229;28;20708;-78
2021/05/14 05:14:23;;;;;;;2.22;1.00;;;8.50;99.90;;;;;;4973394;28;20091;-74
2021/05/14 05:16:49;;;;;;;2.20;0.75;;;8.50;99.90;;;;;;4955387;28;20079;-75
2021/05/14 05:19:14;;;;;;;2.28;0.80;;;8.70;99.90;;;;;;4957758;28;20083;-76
2021/05/14 05:21:40;;;;;;;1.30;0.82;;;8.70;99.90;;;;;;4955297;28;20559;-75
2021/05/14 05:24:06;;;;;;;1.48;0.80;;;8.70;99.90;;;;;;4956112;28;20158;-76
2021/05/14 05:26:32;;;;;;;2.17;1.00;;;8.90;99.90;;;;;;4955820;28;20103;-75
2021/05/14 05:28:57;;;;;;;1.63;0.68;;;9.00;99.90;;;;;;4955572;28;20126;-74
2021/05/14 05:31:23;;;;;;;3.63;0.73;;;9.00;99.90;;;;;;4967384;28;20098;-76
2021/05/14 05:33:48;;;;;;;3.92;0.70;;;9.10;99.90;;;;;;4966727;28;20079;-76
2021/05/14 05:36:14;;;;;;;2.88;0.80;;;9.20;99.90;;;;;;4954795;28;20079;-75
2021/05/14 05:38:40;;;;;;;1.08;0.50;;;9.30;99.90;;;;;;4956306;28;20087;-76
2021/05/14 05:41:05;;;;;;;3.22;1.25;;;9.40;99.90;;;;;;4958401;28;20115;-75
2021/05/14 05:43:31;;;;;;;0.65;0.40;;;9.50;99.90;;;;;;4965978;28;20087;-76
2021/05/14 05:45:56;;;;;;;0.98;0.60;;;9.50;99.90;;;;;;4965841;28;20154;-75
2021/05/14 05:48:22;;;;;;;1.27;0.60;;;9.60;99.90;;;;;;4940006;28;20067;-76
2021/05/14 05:50:48;;;;;;;1.83;0.70;;;9.70;99.90;;;;;;4954074;28;20535;-75
2021/05/14 05:53:15;;;;;;;2.60;0.52;;;9.80;99.90;;;;;;4938452;28;20090;-76
2021/05/14 05:55:41;;;;;;;1.95;0.60;;;9.80;99.90;;;;;;4953625;28;20087;-75
2021/05/14 05:58:12;;;;;;;1.58;0.60;;;9.90;99.90;;;;;;4957010;28;20090;-76
2021/05/14 06:00:38;;;;;;;0.60;0.50;;;9.90;99.90;;;;;;4963042;28;20103;-75
2021/05/14 06:03:06;;;;;;;1.40;0.52;;;10.00;99.90;;;;;;4954464;28;20131;-75
2021/05/14 06:05:32;;;;;;;2.05;0.60;;;10.10;99.90;;;;;;4961318;28;20075;-75
2021/05/14 06:07:57;;;;;;;1.27;0.40;;;10.20;99.90;;;;;;4954169;28;20076;-75
2021/05/14 06:10:24;;;;;;;1.08;0.45;;;10.20;99.90;;;;;;4970284;28;20098;-75
2021/05/14 06:12:49;;;;;;;4.18;0.70;;;10.20;99.90;;;;;;4971988;28;20090;-75
2021/05/14 06:15:15;;;;;;;1.52;0.50;;;10.30;99.90;;;;;;4961937;28;20071;-76
2021/05/14 06:17:42;;;;;;;1.55;0.73;;;10.40;99.90;;;;;;4964877;28;20087;-76
2021/05/14 06:20:10;;;;;;;1.85;0.60;;;10.40;99.90;;;;;;4968038;28;20135;-75
2021/05/14 06:22:35;;;;;;;1.40;0.52;;;10.50;99.90;;;;;;4963398;28;20088;-75
2021/05/14 06:25:01;;;;;;;2.40;0.50;;;10.50;99.90;;;;;;4957606;28;20075;-75
2021/05/14 06:27:27;;;;;;;1.55;0.55;;;10.70;99.90;;;;;;4954237;28;20090;-76
2021/05/14 06:29:52;;;;;;;1.25;0.50;;;10.80;99.90;;;;;;4955291;28;20079;-76
2021/05/14 06:32:18;;;;;;;3.72;0.80;;;10.80;99.90;;;;;;4968709;28;20170;-76
2021/05/14 06:34:45;;;;;;;1.73;0.90;;;10.80;99.90;;;;;;4964656;28;20083;-75
2021/05/14 06:37:11;;;;;;;2.70;1.20;;;10.90;99.90;;;;;;4957739;28;20076;-75
2021/05/14 06:39:36;;;;;;;2.92;1.23;;;11.00;99.90;;;;;;4970893;28;20587;-75
2021/05/14 06:42:02;;;;;;;1.42;0.80;;;11.10;99.90;;;;;;4961045;28;20559;-75
2021/05/14 06:44:29;;;;;;;1.83;0.60;;;11.20;99.90;;;;;;4963195;28;20645;-75
2021/05/14 06:46:54;;;;;;;1.27;0.55;;;11.30;99.90;;;;;;4965267;28;20079;-75
2021/05/14 06:49:22;;;;;;;2.08;0.60;;;11.30;99.90;;;;;;4967523;28;20082;-75
2021/05/14 06:51:48;;;;;;;1.98;0.70;;;11.20;99.90;;;;;;4966978;28;20089;-76
2021/05/14 06:54:13;;;;;;;1.55;0.90;;;11.40;99.90;;;;;;4965666;28;20454;-75
2021/05/14 06:56:39;;;;;;;1.27;0.95;;;11.60;99.90;;;;;;4957865;28;20091;-75
2021/05/14 06:59:04;;;;;;;0.82;0.50;;;11.70;99.90;;;;;;4965086;28;20126;-75
2021/05/14 07:01:30;;;;;;;1.20;0.70;;;11.60;99.90;;;;;;4962127;28;20113;-75
2021/05/14 07:03:55;;;;;;;1.42;0.80;;;11.80;99.90;;;;;;4966271;28;20171;-75
2021/05/14 07:06:21;;;;;;;0.95;0.50;;;11.80;99.90;;;;;;4968793;28;20170;-75
2021/05/14 07:08:48;;;;;;;1.80;0.95;;;11.70;99.90;;;;;;4948319;28;20084;-75
2021/05/14 07:11:14;;;;;;;0.93;0.40;;;11.80;99.90;;;;;;4963314;28;20089;-76
2021/05/14 07:13:39;;;;;;;3.58;0.85;;;11.90;99.90;;;;;;4969461;28;20082;-75
2021/05/14 07:16:05;;;;;;;0.82;0.63;;;11.90;99.90;;;;;;4967436;28;20079;-76
2021/05/14 07:18:32;;;;;;;1.25;0.47;;;12.00;99.90;;;;;;4950078;28;20468;-76
2021/05/14 07:20:58;;;;;;;0.98;0.60;;;12.00;99.90;;;;;;4970012;28;20146;-75
2021/05/14 07:23:23;;;;;;;0.68;0.52;;;12.20;99.90;;;;;;4961128;28;20087;-75
2021/05/14 07:25:49;;;;;;;0.75;0.40;;;12.30;99.90;;;;;;4952144;28;20147;-75
2021/05/14 07:28:15;;;;;;;2.05;0.47;;;12.30;99.90;;;;;;4965521;28;20071;-75
2021/05/14 07:30:41;;;;;;;1.05;0.50;;;12.30;99.90;;;;;;4953519;28;20091;-75
2021/05/14 07:33:06;;;;;;;2.00;0.35;;;12.60;99.90;;;;;;4962378;28;20080;-76
2021/05/14 07:35:32;;;;;;;0.77;0.35;;;12.60;99.90;;;;;;4951112;28;20162;-76
2021/05/14 07:37:57;;;;;;;1.48;0.70;;;12.60;99.90;;;;;;4956239;28;20515;-76
2021/05/14 07:40:23;;;;;;;0.95;0.45;;;12.60;99.90;;;;;;4961556;28;20091;-75
2021/05/14 07:42:49;;;;;;;1.25;0.43;;;12.50;99.90;;;;;;4961381;28;20095;-75
2021/05/14 07:45:15;;;;;;;1.35;0.57;;;12.70;99.90;;;;;;4958537;28;20841;-76
2021/05/14 07:47:40;;;;;;;2.40;0.60;;;12.70;99.90;;;;;;4956632;28;20103;-76
2021/05/14 07:50:07;;;;;;;2.88;0.60;;;12.90;99.90;;;;;;4951771;28;20174;-75
2021/05/14 07:52:32;;;;;;;0.80;0.40;;;12.90;99.90;;;;;;4954932;28;20101;-76
2021/05/14 07:54:59;;;;;;;0.57;0.30;;;12.70;99.90;;;;;;4954576;28;20580;-75
2021/05/14 07:57:25;;;;;;;3.58;0.45;;;12.70;99.90;;;;;;4960357;28;20529;-76
2021/05/14 07:59:51;;;;;;;0.82;0.40;;;12.70;99.90;;;;;;4956838;28;20071;-77
2021/05/14 08:02:17;;;;;;;0.85;0.50;;;12.70;99.90;;;;;;4957328;28;20134;-76
2021/05/14 08:04:43;;;;;;;0.93;0.50;;;12.80;99.90;;;;;;4948323;28;20079;-76
2021/05/14 08:07:08;;;;;;;0.93;0.40;;;13.10;99.90;;;;;;4951222;28;20089;-75
2021/05/14 08:09:34;;;;;;;0.60;0.38;;;13.20;99.90;;;;;;4962498;28;20154;-75
2021/05/14 08:12:04;;;;;;;2.83;0.40;;;13.10;99.90;;;;;;4950340;28;20099;-75
2021/05/14 08:14:29;;;;;;;1.63;0.40;;;13.20;99.90;;;;;;4961236;28;20075;-76
2021/05/14 08:16:56;;;;;;;0.80;0.32;;;13.10;99.90;;;;;;4956519;28;20089;-75
2021/05/14 08:19:22;;;;;;;0.77;0.30;;;13.20;99.90;;;;;;4947132;28;20075;-75
2021/05/14 08:21:48;;;;;;;1.05;0.22;;;13.40;99.90;;;;;;4950889;28;20161;-75
2021/05/14 08:24:13;;;;;;;1.42;0.63;;;13.50;99.90;;;;;;4968144;28;20174;-75
2021/05/14 08:26:40;;;;;;;4.35;0.60;;;13.40;99.90;;;;;;4952714;28;20119;-75
2021/05/14 08:29:06;;;;;;;0.63;0.40;;;13.30;99.90;;;;;;4951702;28;20772;-76
2021/05/14 08:31:34;;;;;;;2.60;0.55;;;13.20;99.90;;;;;;4942414;28;20130;-75
2021/05/14 08:34:00;;;;;;;0.43;0.20;;;13.10;99.90;;;;;;4951623;28;20079;-76
2021/05/14 08:36:26;;;;;;;0.70;0.20;;;13.00;99.90;;;;;;4953152;28;20086;-76
2021/05/14 08:38:52;;;;;;;0.63;0.32;;;13.10;99.90;;;;;;4950691;28;20541;-75
2021/05/14 08:41:19;;;;;;;1.73;0.20;;;13.40;99.90;;;;;;4936221;29;20752;-75
2021/05/14 08:43:45;;;;;;;0.52;0.20;;;13.70;99.90;;;;;;4958871;28;20092;-75
2021/05/14 08:46:13;;;;;;;1.02;0.22;;;13.70;99.90;;;;;;4951870;28;20100;-75
2021/05/14 08:48:40;;;;;;;1.42;0.28;;;13.60;99.90;;;;;;4953994;28;20194;-77
2021/05/14 08:51:07;;;;;;;0.95;0.20;;;13.60;99.90;;;;;;4965021;28;20091;-76
2021/05/14 08:53:34;;;;;;;0.22;0.10;;;13.60;99.90;;;;;;4964454;28;20080;-76
2021/05/14 08:56:00;;;;;;;1.23;0.20;;;13.80;99.90;;;;;;4948361;28;20087;-76
2021/05/14 08:58:28;;;;;;;0.90;0.20;;;14.00;99.90;;;;;;4952008;28;20087;-76
2021/05/14 09:00:54;;;;;;;0.43;0.20;;;13.70;99.90;;;;;;4958707;28;20094;-76
2021/05/14 09:03:20;;;;;;;0.30;0.10;;;13.50;99.90;;;;;;4958270;28;20084;-75
2021/05/14 09:05:47;;;;;;;2.17;0.30;;;13.60;99.90;;;;;;4955161;28;20080;-75
2021/05/14 09:08:31;;;;;;;0.93;0.25;;;13.80;99.90;;;;;;4965344;28;20075;-75
2021/05/14 09:10:57;;;;;;;0.32;0.20;;;13.80;99.90;;;;;;4955239;28;20091;-76
2021/05/14 09:13:34;;;;;;;0.50;0.30;;;14.10;99.90;;;;;;4967527;28;20106;-76
2021/05/14 09:16:00;;;;;;;1.25;0.20;;;14.50;99.90;;;;;;4931168;28;20694;-76
2021/05/14 09:18:26;;;;;;;1.00;0.30;;;14.40;99.90;;;;;;4949984;28;20118;-76
2021/05/14 09:20:54;;;;;;;0.60;0.10;;;14.50;99.90;;;;;;4944067;28;20099;-75
2021/05/14 09:23:19;;;;;;;0.55;0.20;;;14.60;99.90;;;;;;4965294;28;20105;-75
2021/05/14 09:26:14;;;;;;;0.25;0.20;;;14.10;99.90;;;;;;4961150;28;20075;-76
2021/05/14 09:28:50;;;;;;;0.40;0.10;;;14.50;99.90;;;;;;4956133;28;20432;-77
2021/05/14 09:31:24;;;;;;;0.80;0.20;;;14.80;99.90;;;;;;4968810;28;20104;-75
2021/05/14 09:33:51;;;;;;;0.43;0.20;;;14.80;99.90;;;;;;4971798;28;20162;-75
2021/05/14 09:36:21;;;;;;;0.85;0.25;;;14.70;99.90;;;;;;4955163;28;20555;-75
2021/05/14 09:38:52;;;;;;;2.20;0.30;;;15.20;99.90;;;;;;4960022;28;20084;-75
2021/05/14 09:41:42;;;;;;;0.82;0.10;;;15.00;99.90;;;;;;4964728;28;20080;-75
2021/05/14 09:44:08;;;;;;;0.68;0.10;;;14.70;99.90;;;;;;4957996;28;20111;-75
2021/05/14 09:46:50;;;;;;;2.10;0.25;;;14.50;99.90;;;;;;4962426;28;20624;-77
2021/05/14 09:49:18;;;;;;;2.35;0.47;;;14.60;99.90;;;;;;4953040;28;20120;-75
2021/05/14 09:51:48;;;;;;;0.77;0.30;;;14.40;99.90;;;;;;4973351;28;20094;-75
2021/05/14 09:54:22;;;;;;;1.98;0.30;;;14.30;99.90;;;;;;4960716;28;20104;-75
2021/05/14 09:57:35;;;;;;;1.70;0.30;;;14.30;99.90;;;;;;4951664;28;20556;-75
2021/05/14 10:00:04;;;;;;;0.90;0.45;;;14.40;99.90;;;;;;4951549;28;20365;-75
2021/05/14 10:02:38;;;;;;;1.77;0.73;;;14.30;99.90;;;;;;4966727;28;20083;-75
2021/05/14 10:05:10;;;;;;;1.95;0.10;;;14.50;99.90;;;;;;4973677;28;20059;-75
2021/05/14 10:07:37;;;;;;;0.82;0.43;;;14.60;99.90;;;;;;4967084;28;20071;-75
2021/05/14 10:10:06;;;;;;;2.08;0.20;;;14.90;99.90;;;;;;4965722;28;20092;-75
2021/05/14 10:12:33;;;;;;;0.30;0.17;;;15.20;99.90;;;;;;4937529;28;20606;-75
2021/05/14 10:15:00;;;;;;;0.50;0.20;;;14.90;99.90;;;;;;4965694;28;20158;-74
2021/05/14 10:17:26;;;;;;;0.38;0.20;;;14.50;99.90;;;;;;4966313;28;20083;-75
2021/05/14 10:19:54;;;;;;;2.22;0.35;;;14.30;99.90;;;;;;4948770;28;20067;-75
2021/05/14 10:22:23;;;;;;;1.58;0.15;;;14.30;99.90;;;;;;4966511;28;20083;-74
2021/05/14 10:24:51;;;;;;;0.60;0.30;;;14.20;99.90;;;;;;4968382;28;20075;-76
2021/05/14 10:27:22;;;;;;;0.43;0.20;;;14.30;99.90;;;;;;4971222;28;20125;-75
2021/05/14 10:29:53;;;;;;;0.57;0.30;;;14.60;99.90;;;;;;4954301;28;20078;-76
2021/05/14 10:32:43;;;;;;;0.40;0.10;;;14.70;99.90;;;;;;4962915;28;20420;-76
2021/05/14 10:35:12;;;;;;;0.13;0.10;;;14.90;99.90;;;;;;4964243;28;20079;-75
2021/05/14 10:37:44;;;;;;;0.60;0.20;;;14.70;99.90;;;;;;4963918;28;20091;-75
2021/05/14 10:40:34;;;;;;;0.50;0.10;;;14.60;99.60;;;;;;4966195;28;20099;-75
2021/05/14 10:43:03;;;;;;;1.88;0.40;;;14.50;99.90;;;;;;4968593;28;20174;-75
2021/05/14 10:45:34;;;;;;;1.02;0.20;;;14.60;99.90;;;;;;4970778;28;20071;-76
2021/05/14 10:48:01;;;;;;;1.35;0.30;;;14.60;99.90;;;;;;4953561;28;20091;-76
2021/05/14 10:50:40;;;;;;;0.65;0.20;;;14.50;99.90;;;;;;4967363;28;20453;-75
2021/05/14 10:53:19;;;;;;;1.23;0.20;;;14.70;99.90;;;;;;4969106;28;20118;-76
2021/05/14 10:55:46;;;;;;;0.30;0.20;;;15.00;99.90;;;;;;4971857;28;20495;-75
2021/05/14 10:58:40;;;;;;;0.57;0.22;;;15.20;99.90;;;;;;4970405;28;20166;-76
2021/05/14 11:01:07;;;;;;;1.13;0.20;;;15.00;99.90;;;;;;4953613;28;20095;-76
2021/05/14 11:03:34;;;;;;;3.05;0.68;;;14.70;99.90;;;;;;4957890;28;20178;-74
2021/05/14 11:06:09;;;;;;;1.63;0.43;;;14.70;99.90;;;;;;4963880;28;20541;-74
2021/05/14 11:08:34;;;;;;;;;;;14.80;99.90;;;;;;4965557;28;20082;-75
2021/05/14 11:11:04;;;;;;;0.30;0.10;;;14.70;99.90;;;;;;4969341;28;19974;-75
2021/05/14 11:13:36;;;;;;;1.20;0.10;;;14.80;99.90;;;;;;4964973;28;20150;-76
2021/05/14 11:16:42;;;;;;;1.30;0.25;;;15.20;99.90;;;;;;4963535;28;20090;-76
2021/05/14 11:19:27;;;;;;;0.10;0.00;;;15.40;99.90;;;;;;4935082;29;20080;-77
2021/05/14 11:21:59;;;;;;;1.83;0.52;;;15.50;99.90;;;;;;4959472;28;20118;-75
2021/05/14 11:24:33;;;;;;;6.07;1.45;;;15.40;99.90;;;;;;4961772;28;20091;-76
2021/05/14 11:27:05;;;;;;;9.73;2.20;;;15.30;99.30;;;;;;4967665;28;20153;-74
2021/05/14 11:29:53;;;;;;;1.30;0.40;;;15.10;99.90;;;;;;4945896;28;20090;-73
2021/05/14 11:32:23;;;;;;;0.50;0.30;;;15.00;99.90;;;;;;4964180;28;20139;-74
2021/05/14 11:34:53;;;;;;;1.65;0.38;;;15.00;99.90;;;;;;4952728;28;20075;-75
2021/05/14 11:37:27;;;;;;;0.38;0.20;;;15.00;99.90;;;;;;4967913;28;20130;-75
2021/05/14 11:39:53;;;;;;;1.20;0.43;;;14.80;98.80;;;;;;4967666;28;20095;-75
2021/05/14 11:42:25;;;;;;;2.20;0.60;;;14.80;99.90;;;;;;4970793;28;20158;-75
2021/05/14 11:45:03;;;;;;;3.60;1.23;;;14.90;99.90;;;;;;4946499;28;20079;-75
2021/05/14 11:47:29;;;;;;;1.75;0.22;;;15.00;99.90;;;;;;4962359;28;20074;-75
2021/05/14 11:49:56;;;;;;;0.88;0.30;;;14.90;99.90;;;;;;4954108;28;20079;-79
2021/05/14 11:52:41;;;;;;;0.63;0.52;;;14.90;99.90;;;;;;4964236;28;20170;-78
2021/05/14 11:55:11;;;;;;;2.78;0.35;;;14.90;99.90;;;;;;4959727;28;20079;-74
2021/05/14 11:57:37;;;;;;;0.88;0.13;;;14.90;99.80;;;;;;4941941;28;20079;-74
2021/05/14 12:00:06;;;;;;;1.75;0.10;;;15.00;99.70;;;;;;4958883;28;20079;-74
2021/05/14 12:02:43;;;;;;;0.28;0.20;;;15.30;99.90;;;;;;4964546;28;20608;-74
2021/05/14 12:05:11;;;;;;;0.30;0.10;;;15.40;99.90;;;;;;4966815;28;20516;-74
2021/05/14 12:07:37;;;;;;;0.43;0.20;;;15.40;99.90;;;;;;4965368;28;20166;-77
2021/05/14 12:10:09;;;;;;;0.68;0.10;;;15.00;99.60;;;;;;4951748;28;20110;-76
2021/05/14 12:12:37;;;;;;;2.17;0.82;;;15.00;99.90;;;;;;4964693;28;20440;-76
2021/05/14 12:15:22;;;;;;;0.52;0.30;;;15.10;99.90;;;;;;4959024;28;20135;-76
2021/05/14 12:17:50;;;;;;;1.60;0.45;;;15.10;99.90;;;;;;4947508;28;20083;-76
2021/05/14 12:20:30;;;;;;;0.20;0.10;;;15.00;99.50;;;;;;4957364;28;20119;-75
2021/05/14 12:23:01;;;;;;;0.93;0.20;;;15.10;99.90;;;;;;4961269;28;20096;-75
2021/05/14 12:25:29;;;;;;;0.30;0.17;;;15.00;99.90;;;;;;4961733;28;20075;-75
2021/05/14 12:27:56;;;;;;;1.60;0.32;;;15.00;99.90;;;;;;4961791;28;20134;-75
2021/05/14 12:30:36;;;;;;;0.30;0.20;;;15.20;99.90;;;;;;4953766;28;20080;-76
2021/05/14 12:33:02;;;;;;;7.57;0.73;;;15.10;99.90;;;;;;4951026;28;20166;-75
2021/05/14 12:35:28;;;;;;;2.10;0.25;;;15.30;99.90;;;;;;4958718;28;20071;-75
2021/05/14 12:37:55;;;;;;;0.82;0.30;;;15.50;99.90;;;;;;4990308;28;20098;-75
2021/05/14 12:40:30;;;;;;;1.58;0.35;;;15.30;99.20;;;;;;4957050;28;20602;-75
2021/05/14 12:43:08;;;;;;;1.20;0.30;;;15.30;99.00;;;;;;4951158;28;20123;-75
2021/05/14 12:45:35;;;;;;;0.68;0.20;;;15.60;99.90;;;;;;4951342;28;20420;-75
2021/05/14 12:48:02;;;;;;;0.75;0.13;;;15.70;99.20;;;;;;4955922;28;20078;-75
2021/05/14 12:50:28;;;;;;;1.90;0.15;;;16.00;99.90;;;;;;4950384;28;20165;-78
2021/05/14 12:52:54;;;;;;;0.52;0.22;;;16.10;99.90;;;;;;4955621;28;20104;-77
2021/05/14 12:55:20;;;;;;;0.90;0.25;;;15.70;96.30;;;;;;4971191;28;20076;-75
2021/05/14 12:57:59;;;;;;;2.88;0.50;;;15.90;99.90;;;;;;4970922;28;20083;-75
2021/05/14 13:00:26;;;;;;;1.48;0.40;;;16.00;99.90;;;;;;4964433;28;20105;-75
2021/05/14 13:03:10;;;;;;;0.30;0.22;;;16.20;99.90;;;;;;4954723;28;20095;-75